logo tempoitalia

Diretta Meteo Gerona-Costa Brava, Spagnalunedì 31 agosto ore 08:00

Mappa
Sereno 16 °C Sereno 24 Ore: T.min 14 T.max 30
Ponente Nord Km/h 0 Punto di rugiada: 12 °C Umidità: 77% Visibilità: 10 Km
Il sole sorge alle: 07:13 Il sole tramonta alle: 20:24
31 Agosto 2026 08:00 tempo osservato: Sereno Sereno 16 77 1018 vento: Nord N 0
31 Agosto 2026 07:30 tempo osservato: Sereno Sereno 14 76 1018 vento: Nord N 5.5
31 Agosto 2026 07:00 tempo osservato: Sereno Sereno 14 76 1018 vento: Nord N 1.8
31 Agosto 2026 06:30 tempo osservato: Sereno Sereno 16 67 1017 vento: Nord N 3.7
31 Agosto 2026 06:00 tempo osservato: Sereno Sereno 15 76 1017 vento: Nord N 5.5
31 Agosto 2026 05:30 tempo osservato: Sereno Sereno 14 76 1017 vento: Nord N 3.7
31 Agosto 2026 05:00 tempo osservato: Sereno Sereno 16 72 1017 vento: Nord N 1.8
31 Agosto 2026 04:30 tempo osservato: Sereno Sereno 15 72 1017 vento: Nord N 5.5
31 Agosto 2026 04:00 tempo osservato: Sereno Sereno 15 72 1017 vento: Nord N 1.8
31 Agosto 2026 03:30 tempo osservato: Sereno Sereno 16 72 1017 vento: Nord N 1.8
31 Agosto 2026 03:00 tempo osservato: Sereno Sereno 18 59 1017 vento: Nord O 7.4
31 Agosto 2026 02:30 tempo osservato: Sereno Sereno 16 72 1017 vento: Nord N 3.7
31 Agosto 2026 02:00 tempo osservato: Sereno Sereno 18 63 1017 vento: Nord N 1.8
31 Agosto 2026 01:30 tempo osservato: Sereno Sereno 18 63 1017 vento: Nord N 0
31 Agosto 2026 01:00 tempo osservato: Sereno Sereno 17 67 1017 vento: Nord N 3.7
31 Agosto 2026 00:30 tempo osservato: Sereno Sereno 19 59 1016 vento: Nord N 5.5
31 Agosto 2026 00:00 tempo osservato: Sereno Sereno 20 52 1016 vento: Nord N 5.5
30 Agosto 2026 23:30 tempo osservato: Sereno Sereno 20 56 1016 vento: Nord N 5.5
30 Agosto 2026 23:00 tempo osservato: Sereno Sereno 20 56 1016 vento: Nord N 3.7
30 Agosto 2026 22:30 tempo osservato: Sereno Sereno 22 49 1015 vento: Nord S/SO 7.4
30 Agosto 2026 22:00 tempo osservato: Sereno Sereno 23 46 1015 vento: Nord S/SO 14.8
30 Agosto 2026 21:30 tempo osservato: Sereno Sereno 23 43 1015 vento: Nord S/SE 9.3
30 Agosto 2026 21:00 tempo osservato: Sereno Sereno 23 43 1014 vento: Nord S/SE 7.4
30 Agosto 2026 20:30 tempo osservato: Sereno Sereno 25 36 1014 vento: Nord S 14.8
30 Agosto 2026 20:00 tempo osservato: Sereno Sereno 25 36 1014 vento: Nord S/SO 27.8
30 Agosto 2026 19:30 tempo osservato: Sereno Sereno 26 34 1014 vento: Nord S/SO 27.8
30 Agosto 2026 19:00 tempo osservato: Sereno Sereno 27 34 1014 vento: Nord S/SO 35.2
30 Agosto 2026 18:30 tempo osservato: Sereno Sereno 28 37 1014 vento: Nord S/SO 37
30 Agosto 2026 18:00 tempo osservato: Sereno Sereno 28 42 1014 vento: Nord S/SO 35.2
30 Agosto 2026 17:30 tempo osservato: Sereno Sereno 28 39 1014 vento: Nord S 33.3
30 Agosto 2026 17:00 tempo osservato: Sereno Sereno 28 39 1014 vento: Nord S 35.2
30 Agosto 2026 16:30 tempo osservato: Sereno Sereno 29 35 1015 vento: Nord S 35.2
30 Agosto 2026 16:00 tempo osservato: Sereno Sereno 30 28 1015 vento: Nord S 33.3
30 Agosto 2026 15:30 tempo osservato: Sereno Sereno 30 28 1015 vento: Nord S 31.5
30 Agosto 2026 15:00 tempo osservato: Sereno Sereno 30 28 1016 vento: Nord S 31.5
30 Agosto 2026 14:30 tempo osservato: Sereno Sereno 30 28 1016 vento: Nord S 31.5
30 Agosto 2026 14:00 tempo osservato: Sereno Sereno 30 28 1016 vento: Nord S 29.6
30 Agosto 2026 13:30 tempo osservato: Sereno Sereno 30 28 1016 vento: Nord S 25.9
30 Agosto 2026 13:00 tempo osservato: Sereno Sereno 30 28 1017 vento: Nord S 24
30 Agosto 2026 12:30 tempo osservato: Sereno Sereno 29 28 1017 vento: Nord S/SO 18.5
30 Agosto 2026 12:00 tempo osservato: Sereno Sereno 28 32 1017 vento: Nord S/SO 14.8
30 Agosto 2026 11:30 tempo osservato: Sereno Sereno 27 34 1017 vento: Nord S 9.3
30 Agosto 2026 11:00 tempo osservato: Sereno Sereno 26 41 1018 vento: Nord S 7.4
30 Agosto 2026 10:30 tempo osservato: Sereno Sereno 24 47 1018 vento: Nord N 3.7
30 Agosto 2026 10:00 tempo osservato: Sereno Sereno 23 53 1018 vento: Nord N 1.8
30 Agosto 2026 09:30 tempo osservato: Sereno Sereno 21 60 1018 vento: Nord N 1.8
30 Agosto 2026 09:00 tempo osservato: Sereno Sereno 19 68 1017 vento: Nord N 1.8